createdAt,value
2018-10-11T00:00:05.939Z,23.55
2018-10-11T00:00:39.627Z,26.15
2018-10-11T00:01:13.269Z,24.67
2018-10-11T00:01:46.926Z,24.92
2018-10-11T00:02:20.586Z,23.62
2018-10-11T00:02:54.258Z,25.95
2018-10-11T00:03:27.945Z,28.00
2018-10-11T00:04:01.595Z,25.90
2018-10-11T00:04:35.257Z,22.35
2018-10-11T00:05:08.927Z,23.47
2018-10-11T00:05:42.580Z,27.37
2018-10-11T00:06:16.243Z,23.55
2018-10-11T00:06:50.127Z,24.52
2018-10-11T00:07:24.329Z,24.50
2018-10-11T00:07:58.003Z,24.20
2018-10-11T00:08:31.683Z,24.05
2018-10-11T00:09:07.834Z,23.20
2018-10-11T00:09:41.483Z,25.90
2018-10-11T00:10:15.141Z,26.15
2018-10-11T00:10:48.793Z,23.55
2018-10-11T00:11:22.440Z,23.80
2018-10-11T00:12:03.255Z,26.68
2018-10-11T00:12:44.962Z,25.72
2018-10-11T00:13:26.631Z,24.67
2018-10-11T00:14:08.293Z,26.60
2018-10-11T00:14:49.874Z,26.50
2018-10-11T00:15:31.555Z,25.57
2018-10-11T00:16:13.219Z,24.02
2018-10-11T00:16:54.903Z,23.62
2018-10-11T00:17:36.594Z,27.27
2018-10-11T00:18:18.151Z,29.98
2018-10-11T00:18:59.633Z,26.05
2018-10-11T00:19:41.213Z,29.48
2018-10-11T00:20:22.771Z,26.10
2018-10-11T00:21:04.459Z,28.57
2018-10-11T00:21:45.963Z,25.08
2018-10-11T00:22:27.381Z,24.52
2018-10-11T00:23:09.059Z,24.72
2018-10-11T00:23:50.636Z,25.68
2018-10-11T00:24:32.331Z,25.65
2018-10-11T00:25:44.424Z,27.90
2018-10-11T00:26:55.477Z,29.82
2018-10-11T00:28:06.384Z,26.48
2018-10-11T00:29:17.349Z,26.27
2018-10-11T00:30:28.380Z,27.15
2018-10-11T00:31:39.251Z,27.13
2018-10-11T00:32:50.095Z,30.20
2018-10-11T00:34:00.792Z,29.00
2018-10-11T00:35:19.874Z,26.25
2018-10-11T00:36:39.084Z,27.98
2018-10-11T00:37:58.148Z,26.68
2018-10-11T00:39:17.219Z,27.77
2018-10-11T00:40:37.362Z,24.25
2018-10-11T00:41:56.528Z,25.40
2018-10-11T00:43:16.398Z,27.37
2018-10-11T00:44:05.039Z,26.30
2018-10-11T00:44:47.558Z,26.95
2018-10-11T00:45:21.223Z,28.05
2018-10-11T00:45:54.847Z,26.82
2018-10-11T00:46:28.496Z,26.95
2018-10-11T00:47:02.181Z,26.00
2018-10-11T00:47:35.986Z,27.15
2018-10-11T00:48:09.628Z,25.17
2018-10-11T00:48:43.342Z,27.95
2018-10-11T00:49:17.048Z,29.37
2018-10-11T00:49:50.661Z,28.17
2018-10-11T00:50:24.336Z,27.73
2018-10-11T00:50:57.952Z,26.20
2018-10-11T00:51:31.594Z,28.02
2018-10-11T00:52:05.268Z,29.12
2018-10-11T00:52:38.969Z,26.73
2018-10-11T00:53:12.608Z,26.35
2018-10-11T00:53:46.258Z,27.62
2018-10-11T00:54:19.946Z,27.00
2018-10-11T00:54:53.598Z,27.42
2018-10-11T00:55:27.276Z,27.60
2018-10-11T00:56:00.938Z,27.42
2018-10-11T00:56:34.604Z,28.05
2018-10-11T00:57:08.394Z,27.83
2018-10-11T00:57:42.060Z,26.55
2018-10-11T00:58:15.668Z,27.80
2018-10-11T00:58:49.301Z,25.00
2018-10-11T00:59:22.984Z,25.25
2018-10-11T00:59:56.590Z,25.25
2018-10-11T01:00:30.264Z,27.25
2018-10-11T01:01:03.923Z,25.93
2018-10-11T01:01:37.818Z,27.17
2018-10-11T01:02:11.468Z,28.98
2018-10-11T01:02:45.169Z,27.27
2018-10-11T01:03:18.835Z,26.77
2018-10-11T01:03:55.695Z,26.12
2018-10-11T01:04:29.369Z,27.82
2018-10-11T01:05:03.048Z,28.52
2018-10-11T01:05:36.676Z,27.37
2018-10-11T01:06:10.592Z,26.48
2018-10-11T01:06:44.250Z,29.05
2018-10-11T01:07:17.910Z,28.15
2018-10-11T01:07:51.553Z,28.15
2018-10-11T01:08:25.211Z,27.32
2018-10-11T01:08:58.836Z,30.45
2018-10-11T01:09:32.612Z,27.17
2018-10-11T01:10:06.465Z,29.70
2018-10-11T01:10:40.136Z,27.48
2018-10-11T01:11:13.834Z,28.00
2018-10-11T01:11:47.486Z,29.42
2018-10-11T01:12:21.133Z,28.05
2018-10-11T01:12:54.866Z,27.05
2018-10-11T01:13:28.502Z,27.13
2018-10-11T01:14:02.242Z,28.40
2018-10-11T01:14:35.909Z,26.48
2018-10-11T01:15:09.569Z,28.10
2018-10-11T01:15:43.224Z,27.67
2018-10-11T01:16:16.906Z,29.75
2018-10-11T01:16:50.599Z,28.07
2018-10-11T01:17:24.396Z,26.52
2018-10-11T01:17:58.034Z,31.35
2018-10-11T01:18:31.661Z,27.55
2018-10-11T01:19:05.410Z,27.80
2018-10-11T01:19:39.104Z,29.48
2018-10-11T01:20:12.764Z,29.37
2018-10-11T01:20:46.437Z,28.05
2018-10-11T01:21:20.130Z,27.30
2018-10-11T01:21:53.754Z,29.23
2018-10-11T01:22:27.386Z,29.23
2018-10-11T01:23:01.144Z,28.62
2018-10-11T01:23:35.317Z,30.48
2018-10-11T01:24:09.009Z,28.70
2018-10-11T01:24:42.648Z,27.75
2018-10-11T01:25:16.292Z,26.85
2018-10-11T01:25:49.960Z,27.35
2018-10-11T01:26:23.846Z,28.85
2018-10-11T01:26:57.534Z,28.53
2018-10-11T01:27:31.234Z,32.17
2018-10-11T01:28:05.027Z,27.52
2018-10-11T01:28:38.664Z,28.52
2018-10-11T01:29:12.335Z,27.58
2018-10-11T01:29:46.077Z,26.62
2018-10-11T01:30:19.728Z,27.50
2018-10-11T01:30:59.160Z,25.88
2018-10-11T01:31:32.780Z,27.05
2018-10-11T01:32:06.937Z,28.12
2018-10-11T01:32:40.613Z,28.75
2018-10-11T01:33:14.241Z,29.55
2018-10-11T01:33:47.962Z,30.72
2018-10-11T01:34:21.773Z,29.10
2018-10-11T01:34:55.411Z,29.23
2018-10-11T01:35:29.030Z,30.45
2018-10-11T01:36:02.701Z,29.52
2018-10-11T01:36:36.414Z,29.50
2018-10-11T01:37:10.105Z,28.32
2018-10-11T01:37:43.745Z,30.10
2018-10-11T01:38:17.411Z,31.05
2018-10-11T01:38:52.866Z,29.30
2018-10-11T01:39:26.521Z,31.17
2018-10-11T01:40:00.233Z,28.62
2018-10-11T01:40:33.925Z,29.30
2018-10-11T01:41:07.901Z,31.48
2018-10-11T01:41:41.564Z,27.50
2018-10-11T01:42:15.237Z,29.07
2018-10-11T01:43:03.480Z,28.32
2018-10-11T01:43:37.193Z,30.40
2018-10-11T01:44:10.880Z,30.08
2018-10-11T01:44:44.541Z,30.27
2018-10-11T01:45:18.229Z,31.20
2018-10-11T01:45:51.925Z,32.90
2018-10-11T01:46:25.673Z,27.35
2018-10-11T01:46:59.365Z,29.32
2018-10-11T01:47:33.077Z,31.85
2018-10-11T01:48:06.775Z,29.20
2018-10-11T01:48:40.701Z,29.60
2018-10-11T01:49:14.356Z,29.85
2018-10-11T01:49:48.037Z,29.18
2018-10-11T01:50:21.763Z,28.42
2018-10-11T01:50:55.425Z,29.32
2018-10-11T01:51:29.105Z,31.50
2018-10-11T01:52:02.785Z,30.12
2018-10-11T01:52:36.487Z,29.67
2018-10-11T01:53:10.107Z,32.23
2018-10-11T01:53:43.773Z,31.82
2018-10-11T01:54:17.415Z,29.67
2018-10-11T01:54:51.067Z,31.95
2018-10-11T01:55:25.902Z,31.48
2018-10-11T01:55:59.546Z,30.00
2018-10-11T01:56:33.201Z,31.80
2018-10-11T01:57:08.188Z,28.00
2018-10-11T01:57:41.819Z,32.65
2018-10-11T01:58:15.555Z,31.73
2018-10-11T01:58:49.169Z,28.62
2018-10-11T01:59:22.874Z,29.70
2018-10-11T01:59:56.526Z,29.25
2018-10-11T02:00:30.186Z,28.62
2018-10-11T02:01:03.860Z,30.02
2018-10-11T02:01:37.517Z,30.08
2018-10-11T02:02:11.189Z,31.60
2018-10-11T02:02:44.834Z,29.77
2018-10-11T02:03:18.563Z,29.40
2018-10-11T02:03:52.211Z,30.57
2018-10-11T02:04:25.975Z,28.95
2018-10-11T02:04:59.613Z,31.15
2018-10-11T02:05:33.303Z,31.00
2018-10-11T02:06:07.091Z,30.90
2018-10-11T02:06:40.868Z,29.27
2018-10-11T02:07:14.499Z,30.52
2018-10-11T02:07:48.150Z,30.12
2018-10-11T02:08:21.807Z,29.52
2018-10-11T02:08:55.461Z,32.48
2018-10-11T02:09:29.190Z,32.78
2018-10-11T02:10:02.893Z,31.70
2018-10-11T02:10:36.525Z,32.20
2018-10-11T02:11:10.184Z,31.27
2018-10-11T02:11:43.844Z,31.00
2018-10-11T02:12:17.477Z,31.25
2018-10-11T02:12:51.160Z,30.40
2018-10-11T02:13:24.787Z,32.13
2018-10-11T02:13:58.428Z,33.45
2018-10-11T02:14:32.093Z,30.75
2018-10-11T02:15:06.106Z,33.25
2018-10-11T02:15:39.793Z,32.93
2018-10-11T02:16:13.437Z,31.82
2018-10-11T02:16:47.089Z,32.50
2018-10-11T02:17:20.745Z,30.23
2018-10-11T02:17:54.708Z,32.50
2018-10-11T02:18:28.324Z,34.33
2018-10-11T02:19:02.012Z,32.23
2018-10-11T02:19:35.662Z,31.02
2018-10-11T02:20:09.437Z,35.58
2018-10-11T02:20:43.086Z,35.17
2018-10-11T02:21:16.761Z,32.42
2018-10-11T02:21:50.442Z,35.35
2018-10-11T02:22:24.081Z,31.37
2018-10-11T02:22:57.736Z,35.50
2018-10-11T02:23:31.325Z,34.90
2018-10-11T02:24:04.995Z,33.75
2018-10-11T02:24:38.605Z,34.25
2018-10-11T02:25:12.607Z,34.13
2018-10-11T02:25:46.246Z,33.15
2018-10-11T02:26:20.273Z,32.98
2018-10-11T02:26:54.081Z,34.43
2018-10-11T02:27:27.727Z,34.33
2018-10-11T02:28:01.358Z,35.30
2018-10-11T02:28:35.005Z,34.18
2018-10-11T02:29:09.165Z,35.17
2018-10-11T02:29:42.835Z,33.28
2018-10-11T02:30:16.495Z,32.93
2018-10-11T02:30:50.117Z,34.18
2018-10-11T02:31:23.895Z,34.08
2018-10-11T02:31:57.677Z,35.80
2018-10-11T02:32:31.283Z,36.20
2018-10-11T02:33:04.933Z,33.88
2018-10-11T02:33:38.564Z,35.17
2018-10-11T02:34:12.209Z,34.23
2018-10-11T02:34:45.849Z,35.70
2018-10-11T02:35:19.478Z,33.42
2018-10-11T02:35:53.161Z,32.40
2018-10-11T02:36:26.777Z,33.92
2018-10-11T02:37:00.406Z,32.60
2018-10-11T02:37:34.055Z,34.95
2018-10-11T02:38:07.816Z,34.23
2018-10-11T02:38:41.477Z,35.80
2018-10-11T02:39:15.107Z,36.73
2018-10-11T02:39:48.772Z,34.27
2018-10-11T02:40:22.469Z,34.63
2018-10-11T02:40:56.109Z,34.63
2018-10-11T02:41:29.768Z,30.95
2018-10-11T02:42:03.469Z,32.90
2018-10-11T02:42:37.077Z,35.33
2018-10-11T02:43:10.692Z,33.92
2018-10-11T02:43:44.397Z,34.75
2018-10-11T02:44:18.021Z,33.98
2018-10-11T02:44:51.645Z,33.23
2018-10-11T02:45:25.336Z,33.67
2018-10-11T02:45:59.017Z,37.67
2018-10-11T02:46:32.665Z,34.13
2018-10-11T02:47:06.457Z,34.38
2018-10-11T02:47:40.097Z,35.38
2018-10-11T02:48:13.716Z,33.88
2018-10-11T02:48:47.353Z,33.67
2018-10-11T02:49:20.984Z,32.33
2018-10-11T02:49:54.619Z,33.78
2018-10-11T02:50:28.281Z,35.45
2018-10-11T02:51:01.905Z,33.23
2018-10-11T02:51:35.584Z,31.85
2018-10-11T02:52:09.196Z,33.83
2018-10-11T02:52:42.831Z,34.45
2018-10-11T02:53:16.489Z,31.15
2018-10-11T02:53:50.256Z,35.15
2018-10-11T02:54:24.000Z,34.77
2018-10-11T02:54:57.654Z,32.80
2018-10-11T02:55:31.409Z,34.18
2018-10-11T02:56:06.159Z,32.38
2018-10-11T02:56:40.184Z,33.23
2018-10-11T02:57:37.075Z,36.13
2018-10-11T02:58:33.921Z,34.70
2018-10-11T02:59:34.547Z,35.23
2018-10-11T03:00:08.304Z,36.28
2018-10-11T03:00:41.997Z,38.02
2018-10-11T03:01:16.781Z,36.10
2018-10-11T03:01:50.535Z,33.00
2018-10-11T03:02:25.246Z,34.50
2018-10-11T03:03:04.344Z,34.88
2018-10-11T03:03:38.108Z,33.78
2018-10-11T03:04:11.838Z,35.95
2018-10-11T03:04:47.247Z,35.38
2018-10-11T03:05:20.993Z,33.88
2018-10-11T03:05:56.110Z,33.87
2018-10-11T03:06:30.540Z,35.45
2018-10-11T03:07:07.191Z,34.98
2018-10-11T03:07:40.915Z,39.03
2018-10-11T03:08:19.170Z,32.83
2018-10-11T03:08:52.946Z,35.33
2018-10-11T03:09:26.828Z,36.15
2018-10-11T03:10:00.572Z,34.65
2018-10-11T03:10:34.310Z,35.17
2018-10-11T03:11:08.070Z,34.13
2018-10-11T03:11:41.738Z,34.08
2018-10-11T03:12:15.948Z,36.63
2018-10-11T03:12:49.569Z,35.33
2018-10-11T03:13:23.268Z,32.75
2018-10-11T03:13:57.064Z,35.98
2018-10-11T03:14:30.713Z,35.40
2018-10-11T03:15:04.787Z,33.75
2018-10-11T03:15:38.792Z,34.95
2018-10-11T03:16:12.612Z,35.13
2018-10-11T03:16:46.280Z,35.08
2018-10-11T03:17:19.917Z,35.10
2018-10-11T03:17:53.561Z,36.85
2018-10-11T03:18:27.278Z,36.98
2018-10-11T03:19:00.962Z,32.53
2018-10-11T03:19:34.578Z,33.13
2018-10-11T03:20:08.232Z,35.68
2018-10-11T03:20:42.980Z,34.30
2018-10-11T03:21:16.681Z,35.05
2018-10-11T03:21:50.375Z,33.08
2018-10-11T03:22:24.069Z,36.95
2018-10-11T03:22:57.747Z,35.90
2018-10-11T03:23:31.448Z,34.53
2018-10-11T03:24:05.086Z,32.58
2018-10-11T03:24:38.918Z,35.83
2018-10-11T03:25:12.540Z,36.42
2018-10-11T03:25:46.179Z,37.88
2018-10-11T03:26:19.813Z,36.70
2018-10-11T03:26:57.350Z,35.83
2018-10-11T03:27:30.944Z,34.90
2018-10-11T03:28:04.636Z,33.98
2018-10-11T03:28:38.276Z,36.10
2018-10-11T03:29:11.886Z,37.00
2018-10-11T03:29:45.535Z,33.48
2018-10-11T03:30:19.215Z,34.75
2018-10-11T03:30:52.918Z,35.33
2018-10-11T03:31:26.698Z,38.73
2018-10-11T03:32:00.342Z,35.98
2018-10-11T03:32:34.042Z,34.73
2018-10-11T03:33:07.721Z,37.55
2018-10-11T03:33:41.609Z,34.00
2018-10-11T03:34:15.414Z,35.13
2018-10-11T03:34:49.102Z,34.05
2018-10-11T03:35:22.817Z,35.00
2018-10-11T03:35:56.534Z,33.83
2018-10-11T03:36:30.370Z,38.13
2018-10-11T03:37:04.194Z,37.98
2018-10-11T03:37:37.878Z,36.28
2018-10-11T03:38:11.770Z,34.33
2018-10-11T03:38:45.395Z,35.90
2018-10-11T03:39:19.046Z,37.53
2018-10-11T03:39:52.650Z,37.00
2018-10-11T03:40:26.876Z,37.03
2018-10-11T03:41:00.534Z,37.90
2018-10-11T03:41:34.181Z,37.95
2018-10-11T03:42:07.841Z,38.80
2018-10-11T03:42:41.507Z,35.70
2018-10-11T03:43:15.174Z,38.83
2018-10-11T03:43:48.849Z,36.77
2018-10-11T03:44:22.592Z,36.20
2018-10-11T03:44:56.322Z,39.75
2018-10-11T03:45:30.072Z,35.33
2018-10-11T03:46:03.773Z,35.20
2018-10-11T03:46:37.468Z,36.90
2018-10-11T03:47:11.120Z,37.73
2018-10-11T03:47:44.763Z,36.38
2018-10-11T03:48:18.405Z,35.20
2018-10-11T03:48:52.068Z,36.77
2018-10-11T03:49:25.929Z,35.80
2018-10-11T03:49:59.539Z,35.10
2018-10-11T03:50:33.159Z,36.20
2018-10-11T03:51:06.902Z,36.33
2018-10-11T03:51:40.540Z,36.80
2018-10-11T03:52:14.208Z,40.35
2018-10-11T03:52:47.880Z,36.40
2018-10-11T03:53:21.532Z,37.73
2018-10-11T03:53:55.206Z,38.73
2018-10-11T03:54:28.849Z,35.95
2018-10-11T03:55:02.552Z,35.80
2018-10-11T03:55:36.204Z,35.45
2018-10-11T03:56:09.821Z,39.55
2018-10-11T03:56:43.507Z,38.33
2018-10-11T03:57:17.166Z,39.98
2018-10-11T03:57:50.793Z,35.80
2018-10-11T03:58:24.445Z,41.45
2018-10-11T03:58:58.872Z,38.20
2018-10-11T03:59:32.536Z,39.35
2018-10-11T04:00:06.344Z,39.55
2018-10-11T04:00:40.089Z,38.08
2018-10-11T04:01:13.755Z,37.65
2018-10-11T04:01:47.407Z,37.42
2018-10-11T04:02:21.075Z,33.45
2018-10-11T04:02:54.842Z,37.67
2018-10-11T04:03:28.500Z,38.65
2018-10-11T04:04:02.172Z,34.78
2018-10-11T04:04:35.861Z,37.70
2018-10-11T04:05:09.552Z,36.53
2018-10-11T04:05:43.247Z,37.08
2018-10-11T04:06:16.902Z,38.30
2018-10-11T04:06:50.564Z,37.53
2018-10-11T04:07:24.698Z,37.48
2018-10-11T04:07:58.312Z,36.50
2018-10-11T04:08:32.017Z,36.60
2018-10-11T04:09:07.206Z,38.85
2018-10-11T04:09:40.981Z,37.88
2018-10-11T04:10:14.667Z,37.98
2018-10-11T04:10:48.279Z,36.28
2018-10-11T04:11:21.927Z,36.23
2018-10-11T04:11:55.562Z,36.65
2018-10-11T04:12:29.190Z,38.90
2018-10-11T04:13:02.784Z,37.65
2018-10-11T04:13:36.436Z,37.15
2018-10-11T04:14:10.069Z,34.90
2018-10-11T04:14:43.720Z,36.20
2018-10-11T04:15:17.330Z,36.07
2018-10-11T04:15:50.954Z,38.53
2018-10-11T04:16:24.614Z,36.23
2018-10-11T04:16:58.321Z,35.65
2018-10-11T04:17:31.996Z,36.85
2018-10-11T04:18:06.080Z,37.70
2018-10-11T04:18:39.901Z,36.25
2018-10-11T04:19:13.567Z,40.88
2018-10-11T04:19:47.212Z,36.42
2018-10-11T04:20:20.864Z,37.98
2018-10-11T04:20:54.499Z,34.95
2018-10-11T04:21:28.250Z,36.98
2018-10-11T04:22:01.909Z,37.63
2018-10-11T04:22:35.560Z,37.05
2018-10-11T04:23:13.805Z,38.67
2018-10-11T04:23:47.433Z,34.90
2018-10-11T04:24:21.054Z,36.23
2018-10-11T04:24:54.884Z,36.73
2018-10-11T04:25:28.530Z,36.98
2018-10-11T04:26:02.235Z,36.50
2018-10-11T04:26:35.865Z,35.73
2018-10-11T04:27:09.764Z,33.78
2018-10-11T04:27:43.460Z,37.98
2018-10-11T04:28:17.115Z,39.23
2018-10-11T04:28:50.784Z,36.50
2018-10-11T04:29:24.905Z,36.15
2018-10-11T04:29:58.534Z,39.38
2018-10-11T04:30:32.160Z,36.58
2018-10-11T04:31:06.124Z,36.58
2018-10-11T04:31:39.738Z,37.63
2018-10-11T04:32:13.387Z,38.20
2018-10-11T04:32:47.000Z,35.75
2018-10-11T04:33:20.651Z,36.63
2018-10-11T04:33:54.296Z,38.17
2018-10-11T04:34:27.933Z,35.35
2018-10-11T04:35:01.596Z,36.77
2018-10-11T04:35:35.204Z,38.58
2018-10-11T04:36:08.895Z,41.40
2018-10-11T04:36:42.541Z,38.08
2018-10-11T04:37:16.205Z,36.53
2018-10-11T04:37:49.838Z,37.28
2018-10-11T04:38:23.490Z,39.65
2018-10-11T04:38:57.092Z,38.98
2018-10-11T04:39:30.747Z,38.13
2018-10-11T04:40:04.417Z,40.17
2018-10-11T04:40:38.084Z,38.53
2018-10-11T04:41:11.711Z,37.50
2018-10-11T04:41:45.362Z,38.75
2018-10-11T04:42:18.998Z,37.90
2018-10-11T04:42:52.668Z,34.50
2018-10-11T04:43:26.276Z,36.13
2018-10-11T04:43:59.900Z,39.50
2018-10-11T04:44:35.393Z,38.98
2018-10-11T04:45:09.057Z,39.48
2018-10-11T04:45:43.678Z,34.53
2018-10-11T04:46:17.304Z,38.02
2018-10-11T04:46:50.962Z,35.78
2018-10-11T04:47:24.616Z,38.58
2018-10-11T04:47:58.235Z,38.55
2018-10-11T04:48:31.866Z,35.47
2018-10-11T04:49:05.736Z,37.38
2018-10-11T04:49:39.422Z,38.30
2018-10-11T04:50:13.115Z,40.75
2018-10-11T04:50:46.748Z,39.90
2018-10-11T04:51:20.980Z,38.63
2018-10-11T04:51:54.606Z,39.35
2018-10-11T04:52:28.272Z,38.35
2018-10-11T04:53:01.932Z,39.55
2018-10-11T04:53:36.168Z,37.17
2018-10-11T04:54:09.739Z,37.67
2018-10-11T04:54:43.352Z,41.70
2018-10-11T04:55:17.012Z,36.13
2018-10-11T04:55:50.722Z,38.13
2018-10-11T04:56:26.548Z,36.85
2018-10-11T04:57:00.198Z,38.90
2018-10-11T04:57:33.820Z,36.60
2018-10-11T04:58:07.627Z,38.63
2018-10-11T04:58:41.293Z,37.73
2018-10-11T04:59:14.901Z,40.75
2018-10-11T04:59:48.569Z,41.05
2018-10-11T05:01:26.386Z,39.50
2018-10-11T05:02:00.022Z,38.28
2018-10-11T05:02:33.664Z,40.23
2018-10-11T05:03:08.802Z,37.45
2018-10-11T05:03:42.442Z,43.52
2018-10-11T05:04:16.169Z,40.33
2018-10-11T05:04:49.870Z,39.70
2018-10-11T05:05:23.700Z,37.70
2018-10-11T05:05:57.288Z,39.42
2018-10-11T05:06:30.975Z,39.30
2018-10-11T05:07:04.636Z,39.05
2018-10-11T05:07:38.280Z,38.90
2018-10-11T05:08:12.364Z,37.28
2018-10-11T05:08:45.965Z,38.00
2018-10-11T05:09:19.598Z,38.58
2018-10-11T05:09:53.276Z,39.45
2018-10-11T05:10:26.985Z,40.67
2018-10-11T05:11:00.691Z,41.45
2018-10-11T05:11:34.410Z,40.05
2018-10-11T05:12:08.120Z,39.98
2018-10-11T05:12:41.852Z,40.08
2018-10-11T05:13:16.071Z,39.55
2018-10-11T05:13:50.744Z,40.30
2018-10-11T05:14:24.472Z,40.80
2018-10-11T05:14:58.691Z,39.67
2018-10-11T05:15:33.989Z,42.58
2018-10-11T05:16:07.666Z,39.80
2018-10-11T05:16:41.335Z,40.50
2018-10-11T05:17:15.096Z,37.95
2018-10-11T05:17:49.804Z,38.92
2018-10-11T05:18:23.568Z,40.40
2018-10-11T05:19:01.980Z,41.83
2018-10-11T05:19:37.636Z,38.47
2018-10-11T05:20:11.349Z,40.52
2018-10-11T05:20:45.222Z,40.75
2018-10-11T05:21:18.956Z,41.23
2018-10-11T05:21:52.656Z,38.25
2018-10-11T05:22:26.361Z,41.37
2018-10-11T05:23:00.177Z,42.40
2018-10-11T05:23:33.882Z,40.50
2018-10-11T05:24:07.605Z,39.27
2018-10-11T05:24:41.254Z,38.78
2018-10-11T05:25:14.946Z,43.48
2018-10-11T05:25:48.611Z,37.15
2018-10-11T05:26:22.281Z,42.55
2018-10-11T05:26:55.979Z,39.95
2018-10-11T05:27:29.674Z,39.58
2018-10-11T05:28:03.304Z,38.95
2018-10-11T05:28:36.972Z,39.18
2018-10-11T05:29:10.656Z,39.70
2018-10-11T05:29:44.256Z,37.83
2018-10-11T05:30:17.982Z,38.20
2018-10-11T05:30:51.711Z,39.90
2018-10-11T05:31:26.360Z,39.90
2018-10-11T05:32:00.106Z,39.92
2018-10-11T05:32:34.142Z,40.48
2018-10-11T05:33:07.873Z,39.98
2018-10-11T05:33:42.791Z,39.38
2018-10-11T05:34:16.433Z,40.60
2018-10-11T05:34:50.259Z,38.98
2018-10-11T05:35:23.924Z,41.10
2018-10-11T05:35:57.579Z,39.00
2018-10-11T05:36:31.282Z,40.40
2018-10-11T05:37:05.049Z,40.63
2018-10-11T05:37:38.665Z,43.30
2018-10-11T05:38:12.306Z,38.83
2018-10-11T05:38:45.911Z,38.30
2018-10-11T05:39:20.048Z,42.67
2018-10-11T05:39:53.690Z,39.08
2018-10-11T05:40:27.377Z,40.85
2018-10-11T05:41:01.096Z,39.75
2018-10-11T05:41:35.312Z,39.20
2018-10-11T05:42:09.042Z,37.35
2018-10-11T05:42:42.805Z,41.83
2018-10-11T05:43:16.873Z,35.80
2018-10-11T05:43:50.753Z,40.33
2018-10-11T05:44:24.497Z,38.20
2018-10-11T05:45:11.060Z,40.78
2018-10-11T05:45:51.448Z,41.33
2018-10-11T05:46:32.501Z,40.50
2018-10-11T05:47:06.247Z,39.63
2018-10-11T05:47:41.076Z,41.05
2018-10-11T05:48:14.832Z,43.08
2018-10-11T05:48:48.572Z,40.10
2018-10-11T05:49:22.511Z,41.83
2018-10-11T05:50:04.401Z,39.75
2018-10-11T05:50:38.463Z,42.62
2018-10-11T05:51:12.241Z,42.80
2018-10-11T05:51:45.943Z,38.08
2018-10-11T05:52:19.704Z,39.50
2018-10-11T05:52:53.492Z,39.27
2018-10-11T05:53:27.421Z,41.85
2018-10-11T05:54:02.444Z,37.95
2018-10-11T05:54:36.310Z,41.80
2018-10-11T05:55:09.975Z,39.65
2018-10-11T05:55:43.991Z,43.45
2018-10-11T05:56:19.215Z,39.85
2018-10-11T05:56:52.949Z,42.20
2018-10-11T05:57:26.981Z,38.48
2018-10-11T05:58:00.723Z,40.40
2018-10-11T05:58:34.568Z,41.90
2018-10-11T05:59:08.638Z,37.78
2018-10-11T05:59:42.337Z,40.73
2018-10-11T06:00:15.985Z,42.35
2018-10-11T06:00:49.925Z,40.40
2018-10-11T06:01:23.742Z,42.40
2018-10-11T06:01:57.494Z,41.50
2018-10-11T06:02:31.175Z,40.85
2018-10-11T06:03:04.991Z,41.23
2018-10-11T06:03:38.697Z,40.98
2018-10-11T06:04:13.151Z,39.05
2018-10-11T06:04:46.803Z,40.52
2018-10-11T06:05:20.447Z,42.48
2018-10-11T06:05:54.197Z,38.50
2018-10-11T06:06:27.886Z,43.17
2018-10-11T06:07:01.681Z,42.80
2018-10-11T06:07:35.441Z,43.02
2018-10-11T06:08:09.206Z,39.67
2018-10-11T06:08:43.531Z,43.92
2018-10-11T06:09:17.401Z,40.25
2018-10-11T06:09:51.209Z,38.40
2018-10-11T06:10:26.746Z,39.67
2018-10-11T06:11:00.469Z,39.50
2018-10-11T06:11:34.281Z,42.35
2018-10-11T06:12:08.145Z,39.83
2018-10-11T06:12:41.868Z,38.92
2018-10-11T06:13:15.626Z,43.42
2018-10-11T06:13:50.245Z,39.50
2018-10-11T06:14:24.074Z,39.90
2018-10-11T06:14:57.763Z,37.60
2018-10-11T06:15:31.503Z,39.08
2018-10-11T06:16:05.228Z,42.23
2018-10-11T06:16:38.974Z,40.35
2018-10-11T06:17:12.614Z,37.80
2018-10-11T06:17:46.373Z,41.60
2018-10-11T06:18:20.059Z,37.58
2018-10-11T06:18:53.743Z,40.90
2018-10-11T06:19:27.457Z,44.03
2018-10-11T06:20:01.193Z,37.95
2018-10-11T06:20:35.189Z,40.52
2018-10-11T06:21:08.981Z,39.67
2018-10-11T06:21:42.997Z,35.88
2018-10-11T06:22:16.711Z,37.93
2018-10-11T06:22:50.431Z,39.35
2018-10-11T06:23:24.123Z,41.13
2018-10-11T06:23:57.807Z,37.23
2018-10-11T06:24:31.475Z,39.35
2018-10-11T06:25:05.171Z,42.00
2018-10-11T06:25:38.903Z,39.05
2018-10-11T06:26:13.097Z,40.10
2018-10-11T06:26:46.821Z,39.78
2018-10-11T06:27:20.505Z,36.15
2018-10-11T06:27:54.245Z,38.78
2018-10-11T06:28:28.077Z,39.63
2018-10-11T06:29:01.929Z,38.98
2018-10-11T06:29:35.857Z,40.98
2018-10-11T06:30:10.245Z,37.20
2018-10-11T06:30:44.046Z,41.30
2018-10-11T06:31:17.849Z,41.37
2018-10-11T06:31:51.618Z,39.35
2018-10-11T06:32:25.476Z,37.73
2018-10-11T06:32:59.384Z,36.90
2018-10-11T06:33:33.039Z,40.92
2018-10-11T06:34:06.915Z,38.30
2018-10-11T06:34:40.714Z,37.83
2018-10-11T06:35:14.486Z,42.38
2018-10-11T06:35:48.350Z,37.75
2018-10-11T06:36:22.551Z,37.17
2018-10-11T06:36:56.714Z,40.63
2018-10-11T06:37:30.780Z,42.67
2018-10-11T06:38:04.476Z,37.93
2018-10-11T06:38:38.296Z,40.98
2018-10-11T06:39:12.225Z,39.05
2018-10-11T06:39:46.037Z,40.63
2018-10-11T06:40:19.672Z,38.70
2018-10-11T06:40:53.449Z,38.38
2018-10-11T06:41:27.545Z,35.63
2018-10-11T06:42:01.345Z,35.75
2018-10-11T06:42:35.093Z,41.13
2018-10-11T06:43:08.838Z,36.15
2018-10-11T06:43:42.612Z,39.03
2018-10-11T06:44:16.391Z,34.80
2018-10-11T06:44:50.130Z,37.08
2018-10-11T06:45:23.895Z,36.45
2018-10-11T06:45:57.672Z,38.05
2018-10-11T06:46:31.398Z,36.83
2018-10-11T06:47:05.330Z,37.23
2018-10-11T06:47:39.832Z,37.67
2018-10-11T06:48:13.572Z,37.30
2018-10-11T06:48:47.324Z,38.05
2018-10-11T06:49:21.056Z,36.38
2018-10-11T06:49:54.833Z,37.03
2018-10-11T06:50:28.561Z,35.25
2018-10-11T06:51:02.310Z,34.20
2018-10-11T06:51:36.039Z,38.63
2018-10-11T06:52:09.746Z,39.45
2018-10-11T06:52:43.464Z,36.70
2018-10-11T06:53:17.250Z,35.60
2018-10-11T06:53:51.066Z,39.55
2018-10-11T06:54:24.760Z,36.00
2018-10-11T06:54:58.845Z,35.88
2018-10-11T06:55:32.554Z,34.83
2018-10-11T06:56:06.477Z,36.83
2018-10-11T06:56:40.112Z,37.53
2018-10-11T06:57:14.138Z,35.35
2018-10-11T06:57:47.786Z,33.67
2018-10-11T06:58:21.408Z,37.40
2018-10-11T06:58:56.250Z,35.48
2018-10-11T06:59:29.946Z,33.92
2018-10-11T07:00:04.698Z,32.67
2018-10-11T07:00:38.454Z,36.90
2018-10-11T07:01:12.096Z,35.28
2018-10-11T07:01:45.846Z,34.18
2018-10-11T07:02:19.477Z,35.65
2018-10-11T07:02:53.176Z,35.08
2018-10-11T07:03:26.808Z,35.55
2018-10-11T07:04:00.452Z,34.78
2018-10-11T07:04:34.092Z,33.88
2018-10-11T07:05:07.810Z,33.65
2018-10-11T07:05:41.755Z,36.48
2018-10-11T07:06:15.214Z,37.42
2018-10-11T07:06:48.874Z,35.92
2018-10-11T07:07:22.592Z,36.63
2018-10-11T07:07:56.247Z,35.78
2018-10-11T07:08:29.868Z,34.35
2018-10-11T07:09:04.291Z,34.95
2018-10-11T07:09:37.916Z,36.70
2018-10-11T07:10:11.609Z,33.88
2018-10-11T07:10:45.232Z,36.10
2018-10-11T07:11:18.863Z,34.85
2018-10-11T07:11:52.511Z,36.38
2018-10-11T07:12:26.166Z,36.15
2018-10-11T07:12:59.820Z,37.10
2018-10-11T07:13:33.488Z,34.70
2018-10-11T07:14:07.175Z,32.73
2018-10-11T07:14:40.791Z,35.98
2018-10-11T07:15:14.420Z,34.03
2018-10-11T07:15:48.064Z,32.85
2018-10-11T07:16:21.740Z,33.60
2018-10-11T07:16:55.442Z,34.33
2018-10-11T07:17:29.090Z,32.65
2018-10-11T07:18:02.766Z,36.30
2018-10-11T07:18:36.431Z,35.17
2018-10-11T07:19:10.091Z,35.05
2018-10-11T07:19:43.797Z,33.90
2018-10-11T07:20:17.445Z,34.75
2018-10-11T07:20:51.141Z,32.40
2018-10-11T07:21:24.781Z,33.88
2018-10-11T07:21:58.593Z,34.40
2018-10-11T07:22:32.256Z,35.13
2018-10-11T07:23:05.934Z,34.65
2018-10-11T07:23:39.659Z,32.88
2018-10-11T07:24:13.353Z,32.35
2018-10-11T07:24:46.988Z,32.48
2018-10-11T07:25:20.682Z,33.98
2018-10-11T07:25:54.370Z,32.88
2018-10-11T07:26:28.033Z,32.85
2018-10-11T07:27:01.692Z,31.27
2018-10-11T07:27:35.358Z,31.30
2018-10-11T07:28:09.092Z,30.97
2018-10-11T07:28:42.775Z,31.68
2018-10-11T07:29:16.409Z,30.82
2018-10-11T07:29:50.113Z,30.90
2018-10-11T07:30:23.916Z,29.37
2018-10-11T07:30:57.581Z,31.17
2018-10-11T07:31:31.293Z,32.95